sensor_id;sensor_type;location;lat;lon;timestamp;P1;durP1;ratioP1;P2;durP2;ratioP2
79084;SDS011;68486;42.808;23.422;2023-04-06T00:00:47;13.50;;;10.50;;
79084;SDS011;68486;42.808;23.422;2023-04-06T00:03:13;13.73;;;9.77;;
79084;SDS011;68486;42.808;23.422;2023-04-06T00:05:39;12.73;;;9.93;;
79084;SDS011;68486;42.808;23.422;2023-04-06T00:08:04;13.88;;;8.43;;
79084;SDS011;68486;42.808;23.422;2023-04-06T00:10:30;13.13;;;9.07;;
79084;SDS011;68486;42.808;23.422;2023-04-06T00:12:55;11.23;;;9.65;;
79084;SDS011;68486;42.808;23.422;2023-04-06T00:15:22;12.60;;;9.55;;
79084;SDS011;68486;42.808;23.422;2023-04-06T00:17:48;15.70;;;10.95;;
79084;SDS011;68486;42.808;23.422;2023-04-06T00:20:14;12.48;;;11.18;;
79084;SDS011;68486;42.808;23.422;2023-04-06T00:22:40;11.55;;;10.02;;
79084;SDS011;68486;42.808;23.422;2023-04-06T00:25:06;13.10;;;10.15;;
79084;SDS011;68486;42.808;23.422;2023-04-06T00:27:31;13.32;;;11.60;;
79084;SDS011;68486;42.808;23.422;2023-04-06T00:29:57;13.90;;;8.95;;
79084;SDS011;68486;42.808;23.422;2023-04-06T00:32:22;12.07;;;7.97;;
79084;SDS011;68486;42.808;23.422;2023-04-06T00:34:48;13.48;;;10.30;;
79084;SDS011;68486;42.808;23.422;2023-04-06T00:37:13;17.00;;;10.68;;
79084;SDS011;68486;42.808;23.422;2023-04-06T00:39:38;13.02;;;9.55;;
79084;SDS011;68486;42.808;23.422;2023-04-06T00:42:09;11.82;;;10.27;;
79084;SDS011;68486;42.808;23.422;2023-04-06T00:44:38;13.25;;;9.85;;
79084;SDS011;68486;42.808;23.422;2023-04-06T00:47:07;14.95;;;10.85;;
79084;SDS011;68486;42.808;23.422;2023-04-06T00:49:33;12.18;;;9.15;;
79084;SDS011;68486;42.808;23.422;2023-04-06T00:51:59;11.30;;;7.47;;
79084;SDS011;68486;42.808;23.422;2023-04-06T00:54:25;10.63;;;7.22;;
79084;SDS011;68486;42.808;23.422;2023-04-06T00:56:50;13.63;;;10.45;;
79084;SDS011;68486;42.808;23.422;2023-04-06T00:59:16;12.10;;;8.43;;
79084;SDS011;68486;42.808;23.422;2023-04-06T01:01:42;12.75;;;8.27;;
79084;SDS011;68486;42.808;23.422;2023-04-06T01:04:07;15.40;;;9.77;;
79084;SDS011;68486;42.808;23.422;2023-04-06T01:06:33;14.05;;;12.27;;
79084;SDS011;68486;42.808;23.422;2023-04-06T01:08:58;12.80;;;10.13;;
79084;SDS011;68486;42.808;23.422;2023-04-06T01:11:24;15.48;;;10.75;;
79084;SDS011;68486;42.808;23.422;2023-04-06T01:13:49;13.18;;;9.55;;
79084;SDS011;68486;42.808;23.422;2023-04-06T01:16:15;13.63;;;11.15;;
79084;SDS011;68486;42.808;23.422;2023-04-06T01:18:41;13.00;;;10.98;;
79084;SDS011;68486;42.808;23.422;2023-04-06T01:21:07;14.10;;;10.35;;
79084;SDS011;68486;42.808;23.422;2023-04-06T01:23:35;12.93;;;11.10;;
79084;SDS011;68486;42.808;23.422;2023-04-06T01:26:00;14.07;;;10.30;;
79084;SDS011;68486;42.808;23.422;2023-04-06T01:28:26;13.55;;;12.15;;
79084;SDS011;68486;42.808;23.422;2023-04-06T01:30:51;14.45;;;11.65;;
79084;SDS011;68486;42.808;23.422;2023-04-06T01:33:17;15.68;;;11.43;;
79084;SDS011;68486;42.808;23.422;2023-04-06T01:35:42;16.83;;;12.18;;
79084;SDS011;68486;42.808;23.422;2023-04-06T01:38:07;15.05;;;13.45;;
79084;SDS011;68486;42.808;23.422;2023-04-06T01:40:33;13.88;;;11.23;;
79084;SDS011;68486;42.808;23.422;2023-04-06T01:42:58;14.07;;;10.93;;
79084;SDS011;68486;42.808;23.422;2023-04-06T01:45:24;15.13;;;11.07;;
79084;SDS011;68486;42.808;23.422;2023-04-06T01:47:50;15.07;;;11.43;;
79084;SDS011;68486;42.808;23.422;2023-04-06T01:50:15;15.88;;;12.73;;
79084;SDS011;68486;42.808;23.422;2023-04-06T01:52:41;15.43;;;10.52;;
79084;SDS011;68486;42.808;23.422;2023-04-06T01:55:06;14.70;;;11.73;;
79084;SDS011;68486;42.808;23.422;2023-04-06T01:57:32;15.32;;;10.13;;
79084;SDS011;68486;42.808;23.422;2023-04-06T01:59:58;13.70;;;11.75;;
79084;SDS011;68486;42.808;23.422;2023-04-06T02:02:23;12.88;;;9.65;;
79084;SDS011;68486;42.808;23.422;2023-04-06T02:04:49;13.55;;;9.85;;
79084;SDS011;68486;42.808;23.422;2023-04-06T02:07:14;16.25;;;11.90;;
79084;SDS011;68486;42.808;23.422;2023-04-06T02:09:40;13.85;;;9.02;;
79084;SDS011;68486;42.808;23.422;2023-04-06T02:12:05;13.98;;;10.60;;
79084;SDS011;68486;42.808;23.422;2023-04-06T02:14:32;12.23;;;8.30;;
79084;SDS011;68486;42.808;23.422;2023-04-06T02:16:58;13.20;;;9.75;;
79084;SDS011;68486;42.808;23.422;2023-04-06T02:19:23;13.48;;;10.23;;
79084;SDS011;68486;42.808;23.422;2023-04-06T02:21:49;15.63;;;13.25;;
79084;SDS011;68486;42.808;23.422;2023-04-06T02:24:14;11.50;;;6.95;;
79084;SDS011;68486;42.808;23.422;2023-04-06T02:26:40;14.00;;;10.23;;
79084;SDS011;68486;42.808;23.422;2023-04-06T02:29:05;15.73;;;10.43;;
79084;SDS011;68486;42.808;23.422;2023-04-06T02:31:32;15.15;;;12.45;;
79084;SDS011;68486;42.808;23.422;2023-04-06T02:33:57;15.63;;;10.48;;
79084;SDS011;68486;42.808;23.422;2023-04-06T02:36:22;14.05;;;10.75;;
79084;SDS011;68486;42.808;23.422;2023-04-06T02:38:48;16.50;;;13.00;;
79084;SDS011;68486;42.808;23.422;2023-04-06T02:41:13;16.88;;;13.27;;
79084;SDS011;68486;42.808;23.422;2023-04-06T02:43:39;14.43;;;12.60;;
79084;SDS011;68486;42.808;23.422;2023-04-06T02:46:04;16.35;;;14.40;;
79084;SDS011;68486;42.808;23.422;2023-04-06T02:48:29;17.08;;;11.77;;
79084;SDS011;68486;42.808;23.422;2023-04-06T02:50:55;15.20;;;12.20;;
79084;SDS011;68486;42.808;23.422;2023-04-06T02:53:21;13.95;;;9.65;;
79084;SDS011;68486;42.808;23.422;2023-04-06T02:55:46;15.85;;;11.02;;
79084;SDS011;68486;42.808;23.422;2023-04-06T02:58:11;17.65;;;12.18;;
79084;SDS011;68486;42.808;23.422;2023-04-06T03:00:37;14.65;;;10.68;;
79084;SDS011;68486;42.808;23.422;2023-04-06T03:03:02;19.00;;;12.07;;
79084;SDS011;68486;42.808;23.422;2023-04-06T03:05:28;15.55;;;10.30;;
79084;SDS011;68486;42.808;23.422;2023-04-06T03:07:53;16.23;;;10.55;;
79084;SDS011;68486;42.808;23.422;2023-04-06T03:10:18;16.17;;;11.30;;
79084;SDS011;68486;42.808;23.422;2023-04-06T03:12:44;12.48;;;9.70;;
79084;SDS011;68486;42.808;23.422;2023-04-06T03:15:09;11.35;;;8.90;;
79084;SDS011;68486;42.808;23.422;2023-04-06T03:17:36;16.25;;;9.40;;
79084;SDS011;68486;42.808;23.422;2023-04-06T03:20:01;12.27;;;7.88;;
79084;SDS011;68486;42.808;23.422;2023-04-06T03:22:28;18.40;;;11.70;;
79084;SDS011;68486;42.808;23.422;2023-04-06T03:24:54;16.50;;;11.45;;
79084;SDS011;68486;42.808;23.422;2023-04-06T03:27:19;14.20;;;9.68;;
79084;SDS011;68486;42.808;23.422;2023-04-06T03:29:45;18.25;;;11.88;;
79084;SDS011;68486;42.808;23.422;2023-04-06T03:32:10;13.00;;;9.57;;
79084;SDS011;68486;42.808;23.422;2023-04-06T03:34:36;15.85;;;9.38;;
79084;SDS011;68486;42.808;23.422;2023-04-06T03:37:01;16.70;;;12.30;;
79084;SDS011;68486;42.808;23.422;2023-04-06T03:39:27;14.50;;;9.95;;
79084;SDS011;68486;42.808;23.422;2023-04-06T03:41:52;16.35;;;11.63;;
79084;SDS011;68486;42.808;23.422;2023-04-06T03:44:18;18.50;;;12.23;;
79084;SDS011;68486;42.808;23.422;2023-04-06T03:46:43;15.65;;;10.20;;
79084;SDS011;68486;42.808;23.422;2023-04-06T03:49:08;16.58;;;11.73;;
79084;SDS011;68486;42.808;23.422;2023-04-06T03:51:34;18.25;;;13.30;;
79084;SDS011;68486;42.808;23.422;2023-04-06T03:54:00;16.92;;;13.00;;
79084;SDS011;68486;42.808;23.422;2023-04-06T03:56:25;15.48;;;10.38;;
79084;SDS011;68486;42.808;23.422;2023-04-06T03:58:51;16.42;;;12.43;;
79084;SDS011;68486;42.808;23.422;2023-04-06T04:01:17;17.48;;;10.35;;
79084;SDS011;68486;42.808;23.422;2023-04-06T04:03:43;17.25;;;11.35;;
79084;SDS011;68486;42.808;23.422;2023-04-06T04:06:08;19.40;;;12.02;;
79084;SDS011;68486;42.808;23.422;2023-04-06T04:08:34;18.08;;;13.25;;
79084;SDS011;68486;42.808;23.422;2023-04-06T04:11:00;19.40;;;15.10;;
79084;SDS011;68486;42.808;23.422;2023-04-06T04:13:26;17.55;;;12.93;;
79084;SDS011;68486;42.808;23.422;2023-04-06T04:15:51;16.80;;;10.85;;
79084;SDS011;68486;42.808;23.422;2023-04-06T04:18:17;17.58;;;11.43;;
79084;SDS011;68486;42.808;23.422;2023-04-06T04:20:43;18.75;;;12.23;;
79084;SDS011;68486;42.808;23.422;2023-04-06T04:23:08;18.90;;;13.38;;
79084;SDS011;68486;42.808;23.422;2023-04-06T04:25:34;18.40;;;12.48;;
79084;SDS011;68486;42.808;23.422;2023-04-06T04:27:59;19.33;;;12.20;;
79084;SDS011;68486;42.808;23.422;2023-04-06T04:30:25;16.42;;;10.90;;
79084;SDS011;68486;42.808;23.422;2023-04-06T04:32:50;20.15;;;14.93;;
79084;SDS011;68486;42.808;23.422;2023-04-06T04:35:16;17.95;;;13.90;;
79084;SDS011;68486;42.808;23.422;2023-04-06T04:37:41;22.45;;;12.85;;
79084;SDS011;68486;42.808;23.422;2023-04-06T04:40:07;17.65;;;10.85;;
79084;SDS011;68486;42.808;23.422;2023-04-06T04:42:33;18.17;;;13.50;;
79084;SDS011;68486;42.808;23.422;2023-04-06T04:44:59;16.80;;;13.60;;
79084;SDS011;68486;42.808;23.422;2023-04-06T04:47:24;17.23;;;13.05;;
79084;SDS011;68486;42.808;23.422;2023-04-06T04:49:50;14.48;;;10.57;;
79084;SDS011;68486;42.808;23.422;2023-04-06T04:52:15;16.90;;;12.43;;
79084;SDS011;68486;42.808;23.422;2023-04-06T04:54:40;18.58;;;11.88;;
79084;SDS011;68486;42.808;23.422;2023-04-06T04:57:06;18.10;;;11.45;;
79084;SDS011;68486;42.808;23.422;2023-04-06T04:59:32;17.83;;;12.30;;
79084;SDS011;68486;42.808;23.422;2023-04-06T05:01:57;17.25;;;12.52;;
79084;SDS011;68486;42.808;23.422;2023-04-06T05:04:23;17.65;;;12.93;;
79084;SDS011;68486;42.808;23.422;2023-04-06T05:06:49;19.55;;;10.98;;
79084;SDS011;68486;42.808;23.422;2023-04-06T05:09:14;15.32;;;10.65;;
79084;SDS011;68486;42.808;23.422;2023-04-06T05:11:40;15.85;;;12.63;;
79084;SDS011;68486;42.808;23.422;2023-04-06T05:14:05;17.83;;;12.30;;
79084;SDS011;68486;42.808;23.422;2023-04-06T05:16:31;17.80;;;11.52;;
79084;SDS011;68486;42.808;23.422;2023-04-06T05:18:57;18.67;;;12.75;;
79084;SDS011;68486;42.808;23.422;2023-04-06T05:21:23;17.70;;;13.40;;
79084;SDS011;68486;42.808;23.422;2023-04-06T05:23:48;17.63;;;12.23;;
79084;SDS011;68486;42.808;23.422;2023-04-06T05:26:14;17.77;;;13.20;;
79084;SDS011;68486;42.808;23.422;2023-04-06T05:28:39;16.17;;;11.75;;
79084;SDS011;68486;42.808;23.422;2023-04-06T05:31:07;18.15;;;14.25;;
79084;SDS011;68486;42.808;23.422;2023-04-06T05:33:32;19.63;;;13.75;;
79084;SDS011;68486;42.808;23.422;2023-04-06T05:35:58;17.23;;;11.98;;
79084;SDS011;68486;42.808;23.422;2023-04-06T05:38:25;16.90;;;11.65;;
79084;SDS011;68486;42.808;23.422;2023-04-06T05:40:51;15.57;;;11.63;;
79084;SDS011;68486;42.808;23.422;2023-04-06T05:43:16;13.52;;;8.27;;
79084;SDS011;68486;42.808;23.422;2023-04-06T05:45:43;15.13;;;10.77;;
79084;SDS011;68486;42.808;23.422;2023-04-06T05:48:09;19.65;;;11.95;;
79084;SDS011;68486;42.808;23.422;2023-04-06T05:50:35;15.68;;;10.27;;
79084;SDS011;68486;42.808;23.422;2023-04-06T05:53:00;21.05;;;13.82;;
79084;SDS011;68486;42.808;23.422;2023-04-06T05:55:26;17.30;;;14.40;;
79084;SDS011;68486;42.808;23.422;2023-04-06T05:57:52;14.45;;;10.07;;
79084;SDS011;68486;42.808;23.422;2023-04-06T06:00:18;16.40;;;12.00;;
79084;SDS011;68486;42.808;23.422;2023-04-06T06:02:44;14.93;;;9.82;;
79084;SDS011;68486;42.808;23.422;2023-04-06T06:05:09;18.10;;;13.50;;
79084;SDS011;68486;42.808;23.422;2023-04-06T06:07:35;17.40;;;10.88;;
79084;SDS011;68486;42.808;23.422;2023-04-06T06:10:01;18.08;;;10.32;;
79084;SDS011;68486;42.808;23.422;2023-04-06T06:12:28;16.17;;;12.05;;
79084;SDS011;68486;42.808;23.422;2023-04-06T06:14:53;18.10;;;13.45;;
79084;SDS011;68486;42.808;23.422;2023-04-06T06:17:20;18.52;;;12.77;;
79084;SDS011;68486;42.808;23.422;2023-04-06T06:19:45;14.52;;;10.80;;
79084;SDS011;68486;42.808;23.422;2023-04-06T06:22:11;19.13;;;14.32;;
79084;SDS011;68486;42.808;23.422;2023-04-06T06:24:36;13.55;;;9.35;;
79084;SDS011;68486;42.808;23.422;2023-04-06T06:27:01;18.45;;;14.02;;
79084;SDS011;68486;42.808;23.422;2023-04-06T06:29:27;18.65;;;14.00;;
79084;SDS011;68486;42.808;23.422;2023-04-06T06:31:52;14.10;;;8.95;;
79084;SDS011;68486;42.808;23.422;2023-04-06T06:34:18;17.80;;;11.00;;
79084;SDS011;68486;42.808;23.422;2023-04-06T06:36:43;16.45;;;11.20;;
79084;SDS011;68486;42.808;23.422;2023-04-06T06:39:09;16.85;;;11.30;;
79084;SDS011;68486;42.808;23.422;2023-04-06T06:41:34;17.90;;;12.60;;
79084;SDS011;68486;42.808;23.422;2023-04-06T06:44:00;12.82;;;9.55;;
79084;SDS011;68486;42.808;23.422;2023-04-06T06:46:26;15.82;;;12.07;;
79084;SDS011;68486;42.808;23.422;2023-04-06T06:48:51;19.40;;;11.13;;
79084;SDS011;68486;42.808;23.422;2023-04-06T06:51:17;16.27;;;12.55;;
79084;SDS011;68486;42.808;23.422;2023-04-06T06:53:42;8.20;;;4.95;;
79084;SDS011;68486;42.808;23.422;2023-04-06T06:56:08;17.52;;;12.82;;
79084;SDS011;68486;42.808;23.422;2023-04-06T06:58:33;17.58;;;10.20;;
79084;SDS011;68486;42.808;23.422;2023-04-06T07:00:58;16.55;;;12.07;;
79084;SDS011;68486;42.808;23.422;2023-04-06T07:03:25;17.02;;;13.02;;
79084;SDS011;68486;42.808;23.422;2023-04-06T07:05:50;14.95;;;9.65;;
79084;SDS011;68486;42.808;23.422;2023-04-06T07:08:22;17.23;;;13.82;;
79084;SDS011;68486;42.808;23.422;2023-04-06T07:10:49;16.33;;;11.95;;
79084;SDS011;68486;42.808;23.422;2023-04-06T07:13:17;16.67;;;10.43;;
79084;SDS011;68486;42.808;23.422;2023-04-06T07:15:47;16.98;;;12.70;;
79084;SDS011;68486;42.808;23.422;2023-04-06T07:18:12;16.83;;;11.98;;
79084;SDS011;68486;42.808;23.422;2023-04-06T07:20:38;18.95;;;12.82;;
79084;SDS011;68486;42.808;23.422;2023-04-06T07:23:03;14.77;;;8.07;;
79084;SDS011;68486;42.808;23.422;2023-04-06T07:25:29;17.92;;;11.98;;
79084;SDS011;68486;42.808;23.422;2023-04-06T07:27:54;15.02;;;9.65;;
79084;SDS011;68486;42.808;23.422;2023-04-06T07:30:20;17.83;;;12.00;;
79084;SDS011;68486;42.808;23.422;2023-04-06T07:32:47;17.92;;;13.65;;
79084;SDS011;68486;42.808;23.422;2023-04-06T07:35:12;18.27;;;14.82;;
79084;SDS011;68486;42.808;23.422;2023-04-06T07:37:40;19.75;;;11.02;;
79084;SDS011;68486;42.808;23.422;2023-04-06T07:40:06;13.45;;;8.75;;
79084;SDS011;68486;42.808;23.422;2023-04-06T07:42:31;15.45;;;11.73;;
79084;SDS011;68486;42.808;23.422;2023-04-06T07:44:58;15.73;;;13.68;;
79084;SDS011;68486;42.808;23.422;2023-04-06T07:47:23;17.05;;;14.75;;
79084;SDS011;68486;42.808;23.422;2023-04-06T07:49:49;13.48;;;9.25;;
79084;SDS011;68486;42.808;23.422;2023-04-06T07:52:14;16.58;;;12.40;;
79084;SDS011;68486;42.808;23.422;2023-04-06T07:54:40;16.00;;;11.30;;
79084;SDS011;68486;42.808;23.422;2023-04-06T07:57:07;16.38;;;12.50;;
79084;SDS011;68486;42.808;23.422;2023-04-06T07:59:34;16.90;;;13.82;;
79084;SDS011;68486;42.808;23.422;2023-04-06T08:02:00;15.93;;;10.98;;
79084;SDS011;68486;42.808;23.422;2023-04-06T08:04:25;16.67;;;9.82;;
79084;SDS011;68486;42.808;23.422;2023-04-06T08:06:51;14.85;;;10.05;;
79084;SDS011;68486;42.808;23.422;2023-04-06T08:09:18;13.65;;;10.18;;
79084;SDS011;68486;42.808;23.422;2023-04-06T08:11:44;12.75;;;9.70;;
79084;SDS011;68486;42.808;23.422;2023-04-06T08:14:11;13.60;;;10.45;;
79084;SDS011;68486;42.808;23.422;2023-04-06T08:16:36;14.93;;;8.85;;
79084;SDS011;68486;42.808;23.422;2023-04-06T08:19:01;14.52;;;10.98;;
79084;SDS011;68486;42.808;23.422;2023-04-06T08:21:28;15.52;;;11.40;;
79084;SDS011;68486;42.808;23.422;2023-04-06T08:23:53;14.88;;;11.85;;
79084;SDS011;68486;42.808;23.422;2023-04-06T08:26:19;16.15;;;11.85;;
79084;SDS011;68486;42.808;23.422;2023-04-06T08:28:44;12.65;;;8.02;;
79084;SDS011;68486;42.808;23.422;2023-04-06T08:31:10;15.02;;;12.23;;
79084;SDS011;68486;42.808;23.422;2023-04-06T08:33:35;14.75;;;13.20;;
79084;SDS011;68486;42.808;23.422;2023-04-06T08:36:14;15.38;;;9.77;;
79084;SDS011;68486;42.808;23.422;2023-04-06T08:38:40;16.90;;;11.65;;
79084;SDS011;68486;42.808;23.422;2023-04-06T08:41:10;15.60;;;11.40;;
79084;SDS011;68486;42.808;23.422;2023-04-06T08:43:44;16.58;;;11.55;;
79084;SDS011;68486;42.808;23.422;2023-04-06T08:46:12;16.67;;;12.02;;
79084;SDS011;68486;42.808;23.422;2023-04-06T08:48:39;14.40;;;9.55;;
79084;SDS011;68486;42.808;23.422;2023-04-06T08:51:06;15.80;;;11.23;;
79084;SDS011;68486;42.808;23.422;2023-04-06T08:53:33;15.65;;;9.57;;
79084;SDS011;68486;42.808;23.422;2023-04-06T08:55:58;15.35;;;9.65;;
79084;SDS011;68486;42.808;23.422;2023-04-06T08:58:25;14.02;;;8.55;;
79084;SDS011;68486;42.808;23.422;2023-04-06T09:00:54;11.98;;;8.35;;
79084;SDS011;68486;42.808;23.422;2023-04-06T09:03:20;12.88;;;9.05;;
79084;SDS011;68486;42.808;23.422;2023-04-06T09:05:46;10.75;;;7.93;;
79084;SDS011;68486;42.808;23.422;2023-04-06T09:08:12;13.05;;;8.80;;
79084;SDS011;68486;42.808;23.422;2023-04-06T09:10:41;12.10;;;10.20;;
79084;SDS011;68486;42.808;23.422;2023-04-06T09:13:07;10.98;;;7.80;;
79084;SDS011;68486;42.808;23.422;2023-04-06T09:15:33;16.70;;;11.93;;
79084;SDS011;68486;42.808;23.422;2023-04-06T09:18:00;15.35;;;12.13;;
79084;SDS011;68486;42.808;23.422;2023-04-06T09:20:25;13.85;;;10.52;;
79084;SDS011;68486;42.808;23.422;2023-04-06T09:22:53;15.50;;;11.20;;
79084;SDS011;68486;42.808;23.422;2023-04-06T09:25:20;14.70;;;11.93;;
79084;SDS011;68486;42.808;23.422;2023-04-06T09:27:47;18.00;;;9.35;;
79084;SDS011;68486;42.808;23.422;2023-04-06T09:30:13;14.00;;;11.75;;
79084;SDS011;68486;42.808;23.422;2023-04-06T09:32:58;12.93;;;7.60;;
79084;SDS011;68486;42.808;23.422;2023-04-06T09:35:24;14.02;;;11.20;;
79084;SDS011;68486;42.808;23.422;2023-04-06T09:37:52;15.13;;;12.20;;
79084;SDS011;68486;42.808;23.422;2023-04-06T09:40:18;11.10;;;8.52;;
79084;SDS011;68486;42.808;23.422;2023-04-06T09:42:47;15.73;;;11.35;;
79084;SDS011;68486;42.808;23.422;2023-04-06T09:45:15;14.35;;;8.77;;
79084;SDS011;68486;42.808;23.422;2023-04-06T09:47:44;13.48;;;9.10;;
79084;SDS011;68486;42.808;23.422;2023-04-06T09:50:12;12.98;;;10.60;;
79084;SDS011;68486;42.808;23.422;2023-04-06T09:52:42;13.63;;;10.40;;
79084;SDS011;68486;42.808;23.422;2023-04-06T09:55:13;12.52;;;9.85;;
79084;SDS011;68486;42.808;23.422;2023-04-06T09:58:12;13.15;;;9.95;;
79084;SDS011;68486;42.808;23.422;2023-04-06T10:04:17;12.63;;;7.80;;
79084;SDS011;68486;42.808;23.422;2023-04-06T10:06:45;12.45;;;8.73;;
79084;SDS011;68486;42.808;23.422;2023-04-06T10:09:17;12.02;;;9.27;;
79084;SDS011;68486;42.808;23.422;2023-04-06T10:11:43;12.35;;;8.30;;
79084;SDS011;68486;42.808;23.422;2023-04-06T10:14:08;11.95;;;7.68;;
79084;SDS011;68486;42.808;23.422;2023-04-06T10:16:34;14.90;;;6.38;;
79084;SDS011;68486;42.808;23.422;2023-04-06T10:19:10;11.20;;;8.68;;
79084;SDS011;68486;42.808;23.422;2023-04-06T10:21:41;13.07;;;10.38;;
79084;SDS011;68486;42.808;23.422;2023-04-06T10:24:11;12.25;;;9.80;;
79084;SDS011;68486;42.808;23.422;2023-04-06T10:26:38;12.73;;;9.85;;
79084;SDS011;68486;42.808;23.422;2023-04-06T10:29:04;12.00;;;8.35;;
79084;SDS011;68486;42.808;23.422;2023-04-06T10:31:30;10.10;;;7.72;;
79084;SDS011;68486;42.808;23.422;2023-04-06T10:33:59;11.73;;;8.10;;
79084;SDS011;68486;42.808;23.422;2023-04-06T10:36:26;13.63;;;9.30;;
79084;SDS011;68486;42.808;23.422;2023-04-06T10:39:02;13.73;;;10.10;;
79084;SDS011;68486;42.808;23.422;2023-04-06T10:41:35;10.88;;;8.25;;
79084;SDS011;68486;42.808;23.422;2023-04-06T10:44:06;11.85;;;8.90;;
79084;SDS011;68486;42.808;23.422;2023-04-06T10:46:32;9.98;;;5.72;;
79084;SDS011;68486;42.808;23.422;2023-04-06T10:49:08;11.98;;;8.88;;
79084;SDS011;68486;42.808;23.422;2023-04-06T10:51:37;12.27;;;8.98;;
79084;SDS011;68486;42.808;23.422;2023-04-06T10:54:03;11.85;;;8.98;;
79084;SDS011;68486;42.808;23.422;2023-04-06T10:56:30;13.57;;;9.23;;
79084;SDS011;68486;42.808;23.422;2023-04-06T10:58:59;11.77;;;8.50;;
79084;SDS011;68486;42.808;23.422;2023-04-06T11:01:24;10.80;;;8.50;;
79084;SDS011;68486;42.808;23.422;2023-04-06T11:03:56;13.57;;;9.10;;
79084;SDS011;68486;42.808;23.422;2023-04-06T11:08:56;9.60;;;6.78;;
79084;SDS011;68486;42.808;23.422;2023-04-06T11:11:23;9.63;;;8.50;;
79084;SDS011;68486;42.808;23.422;2023-04-06T11:13:52;10.07;;;7.00;;
79084;SDS011;68486;42.808;23.422;2023-04-06T11:16:23;10.07;;;8.13;;
79084;SDS011;68486;42.808;23.422;2023-04-06T11:18:56;10.00;;;7.43;;
79084;SDS011;68486;42.808;23.422;2023-04-06T11:21:38;11.13;;;7.20;;
79084;SDS011;68486;42.808;23.422;2023-04-06T11:24:12;9.95;;;7.80;;
79084;SDS011;68486;42.808;23.422;2023-04-06T11:26:48;9.90;;;7.70;;
79084;SDS011;68486;42.808;23.422;2023-04-06T11:29:27;9.75;;;8.55;;
79084;SDS011;68486;42.808;23.422;2023-04-06T11:31:58;7.93;;;5.40;;
79084;SDS011;68486;42.808;23.422;2023-04-06T11:34:25;9.93;;;7.05;;
79084;SDS011;68486;42.808;23.422;2023-04-06T11:36:57;10.48;;;8.27;;
79084;SDS011;68486;42.808;23.422;2023-04-06T11:39:24;10.77;;;8.30;;
79084;SDS011;68486;42.808;23.422;2023-04-06T11:41:52;8.10;;;6.30;;
79084;SDS011;68486;42.808;23.422;2023-04-06T11:46:53;11.55;;;8.45;;
79084;SDS011;68486;42.808;23.422;2023-04-06T11:49:19;10.75;;;8.05;;
79084;SDS011;68486;42.808;23.422;2023-04-06T11:51:45;9.80;;;8.00;;
79084;SDS011;68486;42.808;23.422;2023-04-06T11:54:11;11.55;;;8.27;;
79084;SDS011;68486;42.808;23.422;2023-04-06T11:56:37;10.82;;;9.30;;
79084;SDS011;68486;42.808;23.422;2023-04-06T11:59:03;11.00;;;8.95;;
79084;SDS011;68486;42.808;23.422;2023-04-06T12:01:29;9.75;;;6.10;;
79084;SDS011;68486;42.808;23.422;2023-04-06T12:03:55;11.43;;;8.65;;
79084;SDS011;68486;42.808;23.422;2023-04-06T12:06:21;10.60;;;8.30;;
79084;SDS011;68486;42.808;23.422;2023-04-06T12:08:46;9.93;;;8.25;;
79084;SDS011;68486;42.808;23.422;2023-04-06T12:11:12;9.30;;;7.95;;
79084;SDS011;68486;42.808;23.422;2023-04-06T12:13:37;10.93;;;7.97;;
79084;SDS011;68486;42.808;23.422;2023-04-06T12:16:03;11.77;;;7.60;;
79084;SDS011;68486;42.808;23.422;2023-04-06T12:18:29;9.82;;;6.35;;
79084;SDS011;68486;42.808;23.422;2023-04-06T12:20:55;8.20;;;6.25;;
79084;SDS011;68486;42.808;23.422;2023-04-06T12:23:21;9.52;;;6.80;;
79084;SDS011;68486;42.808;23.422;2023-04-06T12:25:48;9.57;;;7.60;;
79084;SDS011;68486;42.808;23.422;2023-04-06T12:28:14;9.70;;;7.55;;
79084;SDS011;68486;42.808;23.422;2023-04-06T12:30:39;9.60;;;8.30;;
79084;SDS011;68486;42.808;23.422;2023-04-06T12:33:06;11.65;;;7.50;;
79084;SDS011;68486;42.808;23.422;2023-04-06T12:35:34;9.02;;;7.45;;
79084;SDS011;68486;42.808;23.422;2023-04-06T12:38:00;9.98;;;7.18;;
79084;SDS011;68486;42.808;23.422;2023-04-06T12:40:25;7.13;;;5.20;;
79084;SDS011;68486;42.808;23.422;2023-04-06T12:42:51;9.40;;;8.15;;
79084;SDS011;68486;42.808;23.422;2023-04-06T12:45:16;8.82;;;6.32;;
79084;SDS011;68486;42.808;23.422;2023-04-06T12:47:42;8.70;;;7.38;;
79084;SDS011;68486;42.808;23.422;2023-04-06T12:50:07;9.93;;;7.05;;
79084;SDS011;68486;42.808;23.422;2023-04-06T12:52:33;10.80;;;7.20;;
79084;SDS011;68486;42.808;23.422;2023-04-06T12:55:01;8.02;;;6.43;;
79084;SDS011;68486;42.808;23.422;2023-04-06T12:57:30;9.38;;;6.53;;
79084;SDS011;68486;42.808;23.422;2023-04-06T12:59:56;8.00;;;6.50;;
79084;SDS011;68486;42.808;23.422;2023-04-06T13:02:22;7.13;;;5.18;;
79084;SDS011;68486;42.808;23.422;2023-04-06T13:04:48;9.57;;;8.57;;
79084;SDS011;68486;42.808;23.422;2023-04-06T13:07:13;8.85;;;7.60;;
79084;SDS011;68486;42.808;23.422;2023-04-06T13:09:39;8.63;;;6.93;;
79084;SDS011;68486;42.808;23.422;2023-04-06T13:12:05;10.55;;;8.15;;
79084;SDS011;68486;42.808;23.422;2023-04-06T13:14:30;10.30;;;8.00;;
79084;SDS011;68486;42.808;23.422;2023-04-06T13:16:56;9.10;;;7.88;;
79084;SDS011;68486;42.808;23.422;2023-04-06T13:19:22;7.90;;;6.15;;
79084;SDS011;68486;42.808;23.422;2023-04-06T13:21:47;9.05;;;8.15;;
79084;SDS011;68486;42.808;23.422;2023-04-06T13:24:13;10.10;;;7.47;;
79084;SDS011;68486;42.808;23.422;2023-04-06T13:26:39;9.73;;;8.57;;
79084;SDS011;68486;42.808;23.422;2023-04-06T13:29:04;9.35;;;7.30;;
79084;SDS011;68486;42.808;23.422;2023-04-06T13:31:30;10.05;;;8.80;;
79084;SDS011;68486;42.808;23.422;2023-04-06T13:33:56;7.82;;;6.13;;
79084;SDS011;68486;42.808;23.422;2023-04-06T13:36:21;9.35;;;7.45;;
79084;SDS011;68486;42.808;23.422;2023-04-06T13:38:47;9.70;;;8.02;;
79084;SDS011;68486;42.808;23.422;2023-04-06T13:41:22;9.68;;;7.28;;
79084;SDS011;68486;42.808;23.422;2023-04-06T13:43:50;8.40;;;7.55;;
79084;SDS011;68486;42.808;23.422;2023-04-06T13:46:15;9.52;;;6.60;;
79084;SDS011;68486;42.808;23.422;2023-04-06T13:48:41;9.98;;;7.00;;
79084;SDS011;68486;42.808;23.422;2023-04-06T13:51:08;8.30;;;6.90;;
79084;SDS011;68486;42.808;23.422;2023-04-06T13:53:37;8.23;;;7.07;;
79084;SDS011;68486;42.808;23.422;2023-04-06T13:56:03;11.43;;;7.03;;
79084;SDS011;68486;42.808;23.422;2023-04-06T13:58:28;8.65;;;7.50;;
79084;SDS011;68486;42.808;23.422;2023-04-06T14:00:54;10.85;;;7.85;;
79084;SDS011;68486;42.808;23.422;2023-04-06T14:03:20;10.43;;;7.47;;
79084;SDS011;68486;42.808;23.422;2023-04-06T14:05:47;13.02;;;8.32;;
79084;SDS011;68486;42.808;23.422;2023-04-06T14:08:12;9.10;;;7.20;;
79084;SDS011;68486;42.808;23.422;2023-04-06T14:10:38;9.18;;;7.53;;
79084;SDS011;68486;42.808;23.422;2023-04-06T14:13:05;8.07;;;7.00;;
79084;SDS011;68486;42.808;23.422;2023-04-06T14:15:31;9.85;;;6.85;;
79084;SDS011;68486;42.808;23.422;2023-04-06T14:17:56;8.00;;;6.60;;
79084;SDS011;68486;42.808;23.422;2023-04-06T14:20:22;9.75;;;7.82;;